Monday, December 18, 2017, 11:17 AM EST
Back to Local

KABE, Lehigh Valley International Airport

Location: Allentown, PA, United States Lat: 40.65
Local Time: 11:17 AM EST (16:17 GMT) Lon: -75.45
Time Zone: US/Eastern Elev: 393 ft

Show me the last for .
Show Decoded

2017-12-18 10:51 METAR KABE 181551Z 35003KT 2SM HZ FEW008 OVC070 03/00 A3009 RMK AO2 SFC VIS 3
                 SLP192 T00330000 =
2017-12-18 10:43 METAR KABE 181543Z 00000KT 2SM HZ FEW008 OVC070 03/00 A3009 RMK AO2 SFC VIS 3
                 T00330000 =
2017-12-18 10:18 METAR KABE 181518Z 34003KT 2SM HZ BKN008 OVC070 03/00 A3010 RMK AO2 SFC VIS 3
                 T00330000 =
2017-12-18 10:06 METAR KABE 181506Z 00000KT 2SM HZ SCT008 OVC070 03/00 A3010 RMK AO2 SFC VIS 3
                 T00330000 =
2017-12-18 09:51 METAR KABE 181451Z 00000KT 2SM HZ BKN008 OVC070 03/M01 A3010 RMK AO2 SFC VIS 3
                 SLP196 T00281006 56007 =
2017-12-18 08:51 METAR KABE 181351Z 00000KT 2SM HZ OVC006 03/M01 A3011 RMK AO2 SFC VIS 3 SLP198
                 T00281006 =
2017-12-18 07:51 METAR KABE 181251Z 00000KT 7SM OVC006 02/M02 A3011 RMK AO2 SLP198 T00171022 =
2017-12-18 06:51 METAR KABE 181151Z 00000KT 8SM OVC008 02/M02 A3012 RMK AO2 SLP203 T00171022
                 10022 20011 55004 =
2017-12-18 05:51 METAR KABE 181051Z 12003KT 8SM OVC009 02/M02 A3012 RMK AO2 SLP202 T00221022 =
2017-12-18 04:51 METAR KABE 180951Z 00000KT 8SM OVC010 02/M02 A3013 RMK AO2 SLP206 T00171022 =
2017-12-18 03:51 METAR KABE 180851Z 00000KT 8SM OVC010 02/M02 A3013 RMK AO2 SLP207 T00171022
                 58008 =
2017-12-18 02:51 METAR KABE 180751Z AUTO 04003KT 9SM OVC010 02/M02 A3014 RMK AO2 SLP211 T00171022
                 =
2017-12-18 01:51 METAR KABE 180651Z AUTO 06003KT 9SM OVC011 02/M03 A3015 RMK AO2 SLP213 T00171028
                 =
2017-12-18 00:51 METAR KABE 180551Z 04005KT 9SM BKN012 OVC060 01/M03 A3016 RMK AO2 SLP215
                 T00111033 10017 20000 56009 =
2017-12-18 00:46 METAR KABE 180546Z 04005KT 9SM BKN012 OVC060 01/M03 A3016 RMK AO2 =
2017-12-17 23:51 METAR KABE 180451Z 06005KT 8SM FEW043 FEW060 OVC095 01/M03 A3016 RMK AO2 SLP218
                 T00111033 400331011 =
2017-12-17 22:51 METAR KABE 180351Z 05004KT 9SM BKN070 OVC100 01/M03 A3018 RMK AO2 SLP224
                 T00111033 =
2017-12-17 21:51 METAR KABE 180251Z 06004KT 9SM OVC110 01/M03 A3020 RMK AO2 SLP231 T00061033
                 58011 =
2017-12-17 20:51 METAR KABE 180151Z 06003KT 9SM BKN120 01/M04 A3021 RMK AO2 SLP236 T00061039 =
2017-12-17 19:51 METAR KABE 180051Z 05004KT 9SM CLR 01/M04 A3022 RMK AO2 SLP238 T00061039 =
2017-12-17 18:51 METAR KABE 172351Z 08003KT 10SM CLR 01/M04 A3023 RMK AO2 SLP242 T00111039 10033
                 20006 53012 =
2017-12-17 17:51 METAR KABE 172251Z 07004KT 10SM CLR 02/M04 A3022 RMK AO2 SLP237 T00171039 =
2017-12-17 16:51 METAR KABE 172151Z 05005KT 10SM CLR 02/M04 A3021 RMK AO2 SLP233 T00171039 =
2017-12-17 15:51 METAR KABE 172051Z 06004KT 10SM CLR 02/M04 A3020 RMK AO2 SLP229 T00221039 56013
                 =
2017-12-17 14:51 METAR KABE 171951Z 35003KT 10SM CLR 03/M04 A3021 RMK AO2 SLP234 T00281044 =
2017-12-17 13:51 METAR KABE 171851Z 35004KT 10SM CLR 02/M04 A3021 RMK AO2 SLP234 T00221044 =
2017-12-17 12:51 METAR KABE 171751Z 36003KT 10SM CLR 02/M04 A3023 RMK AO2 SLP242 T00171044 10022
                 21011 58014 =
2017-12-17 11:51 METAR KABE 171651Z 03003KT 10SM CLR 02/M05 A3026 RMK AO2 SLP250 T00221050 =

Support USWX by starting your Amazon purchase here.